Home > Products > Valid Products > MTR

000
SAUS43 KAPX 252355
MTRAPN
METAR KAPN 252354Z AUTO 27005KT 9SM -SN OVC036 M02/M03 A3005 RMK AO2
SLP188 P0000 60000 T10221033 11011 21028 51030





000
SAUS43 KAPX 252322
MTRAPN
SPECI KAPN 252321Z AUTO 26006KT 4SM -SN BR FEW027 OVC036 M03/M04
A3005 RMK AO2 P0000 T10281039





000
SAUS43 KAPX 252318 COR
MTRAPN
SPECI KAPN 252315Z AUTO 26007KT 2 1/2SM -SN BR BKN029 OVC036 M03/M04
A3004 RMK AO2 VIS 2V4 P0000 T10281039





000
SAUS43 KAPX 252317 COR
MTRAPN
SPECI KAPN 252315Z AUTO 26007KT 2 1/2SM -SN BR BKN029 OVC036 M03/M04
A3004 RMK AO2 VIS 2V4 P0000 T10281039





000
SAUS43 KAPX 252257 COR
MTRAPN
METAR KAPN 252254Z AUTO 26004KT 2 1/2SM -SN BR OVC034 M02/M04 A3003
RMK AO2 SNB25 SLP180 P0000 T10221039





000
SAUS43 KAPX 252256 COR
MTRAPN
METAR KAPN 252254Z AUTO 26004KT 2 1/2SM -SN BR OVC034 M02/M04 A3003
RMK AO2 SNB25 SLP180 P0000 T10221039





000
SAUS43 KAPX 252155
MTRAPN
METAR KAPN 252154Z AUTO 30003KT 10SM BKN039 OVC049 M02/M05 A3000 RMK
AO2 SLP169 T10221050





000
SAUS43 KAPX 252155
MTRAPN
METAR KAPN 252154Z AUTO 30003KT 10SM BKN039 OVC049 M02/M05 A3000 RMK
AO2 SLP169 T10221050





000
SAUS43 KAPX 252055
MTRAPN
METAR KAPN 252054Z AUTO 29004KT 10SM FEW027 M02/M04 A2996 RMK AO2
SLP155 60000 T10171044 53038





000
SAUS43 KAPX 252040
MTRAPN
SPECI KAPN 252039Z AUTO 29008KT 10SM SCT022 M02/M04 A2995 RMK AO2
T10171044





000
SAUS43 KAPX 252020
MTRAPN
SPECI KAPN 252019Z AUTO 29007KT 10SM SCT022 BKN029 OVC070 M02/M04
A2993 RMK AO2 T10171044





000
SAUS43 KAPX 251956
MTRAPN
METAR KAPN 251954Z AUTO 29007KT 10SM SCT023 BKN050 OVC075 M02/M04
A2992 RMK AO2 SLP139 T10171039





000
SAUS43 KAPX 251920
MTRAPN
SPECI KAPN 251919Z AUTO 29006KT 10SM FEW015 BKN029 OVC070 M02/M04
A2990 RMK AO2 T10171039





000
SAUS43 KAPX 251857 COR
MTRAPN
METAR KAPN 251854Z AUTO 28006KT 10SM FEW020 BKN048 OVC060 M02/M03
A2989 RMK AO2 SNB21E47 SLP129 P0000 T10171033





000
SAUS43 KAPX 251856 COR
MTRAPN
METAR KAPN 251854Z AUTO 28006KT 10SM FEW020 BKN048 OVC060 M02/M03
A2989 RMK AO2 SNB21E47 SLP129 P0000 T10171033





000
SAUS43 KAPX 251759 COR
MTRAPN
METAR KAPN 251754Z AUTO 30008KT 4SM BR FEW014 OVC027 M02/M03 A2985
RMK AO2 VIS 2 1/2 RY 19 SNE54 SLP116 P0001 60002 T10171033 11017
21022 51031





000
SAUS43 KAPX 251758 COR
MTRAPN
METAR KAPN 251754Z AUTO 30008KT 4SM BR FEW014 OVC027 M02/M03 A2985
RMK AO2 VIS 2 1/2 RY 19 SNE54 SLP116 P0001 60002 T10171033 11017
21022 51031





000
SAUS43 KAPX 251756 COR
MTRAPN
METAR KAPN 251754Z AUTO 30008KT 4SM BR FEW014 OVC027 M02/M03 A2985
RMK AO2 VIS 2 1/2 RY 19 SNE54 SLP116 P0001 60002 T10171033 11017
21022 51031





000
SAUS43 KAPX 251726
MTRAPN
SPECI KAPN 251725Z AUTO 29009G17KT 3SM -SN BR FEW019 BKN029 OVC036
M02/M04 A2983 RMK AO2 P0001 T10221039





000
SAUS43 KAPX 251707
MTRAPN
SPECI KAPN 251706Z AUTO 30007G14KT 250V320 1 3/4SM -SN BR FEW019
BKN029 OVC038 M02/M04 A2983 RMK AO2 P0000 T10221039





000
SAUS43 KAPX 251655
MTRAPN
METAR KAPN 251654Z AUTO 30007KT 250V320 2SM -SN BR FEW013 BKN023
OVC039 M02/M04 A2982 RMK AO2 SLP108 P0000 T10221039





000
SAUS43 KAPX 251655
MTRAPN
METAR KAPN 251654Z AUTO 30007KT 250V320 2SM -SN BR FEW013 BKN023
OVC039 M02/M04 A2982 RMK AO2 SLP108 P0000 T10221039





000
SAUS43 KAPX 251650 COR
MTRAPN
SPECI KAPN 251647Z AUTO 30008KT 1 3/4SM -SN BR SCT013 OVC021 M02/M04
A2982 RMK AO2 VIS 3/4 RY 19 P0000 T10221039





000
SAUS43 KAPX 251650 COR
MTRAPN
SPECI KAPN 251647Z AUTO 30008KT 1 3/4SM -SN BR SCT013 OVC021 M02/M04
A2982 RMK AO2 VIS 3/4 RY 19 P0000 T10221039





000
SAUS43 KAPX 251649 COR
MTRAPN
SPECI KAPN 251647Z AUTO 30008KT 1 3/4SM -SN BR SCT013 OVC021 M02/M04
A2982 RMK AO2 VIS 3/4 RY 19 P0000 T10221039





000
SAUS43 KAPX 251649 COR
MTRAPN
SPECI KAPN 251647Z AUTO 30008KT 1 3/4SM -SN BR SCT013 OVC021 M02/M04
A2982 RMK AO2 VIS 3/4 RY 19 P0000 T10221039





000
SAUS43 KAPX 251648
MTRAPN
SPECI KAPN 251647Z AUTO 30008KT 1 3/4SM -SN BR SCT013 OVC021 M02/M04
A2982 RMK AO2 VIS 3/4 RY 19 P0000 T10221039





000
SAUS43 KAPX 251648
MTRAPN
SPECI KAPN 251647Z AUTO 30008KT 1 3/4SM -SN BR SCT013 OVC021 M02/M04
A2982 RMK AO2 VIS 3/4 RY 19 P0000 T10221039





000
SAUS43 KAPX 251632
MTRAPN
SPECI KAPN 251630Z AUTO 30006G15KT 1 1/4SM -SN BR BKN013 BKN026
OVC048 M02/M03 A2981 RMK AO2 P0000 T10221033 TSNO





000
SAUS43 KAPX 251628
MTRAPN
SPECI KAPN 251627Z AUTO 30007G15KT 1 3/4SM -SN BR FEW011 BKN031
OVC048 M02/M03 A2981 RMK AO2 P0000 T10171033





000
SAUS43 KAPX 251555
MTRAPN
METAR KAPN 251554Z AUTO 29010G17KT 4SM -SN BR BKN048 OVC055 M02/M03
A2979 RMK AO2 VIS 2 RY 19 SLP096 P0001 T10171033





000
SAUS43 KAPX 251543
MTRAPN
SPECI KAPN 251542Z AUTO 27008KT 3SM -SN BR BKN044 OVC055 M02/M03
A2978 RMK AO2 VIS 1 1/2 RY 19 P0001 T10171033





000
SAUS43 KAPX 251534 COR
MTRAPN
SPECI KAPN 251531Z AUTO 27007KT 2 1/2SM -SN BR BKN039 BKN048 OVC060
M02/M03 A2977 RMK AO2 VIS 1 1/2 RY 19 P0001 T10171033





000
SAUS43 KAPX 251533 COR
MTRAPN
SPECI KAPN 251531Z AUTO 27007KT 2 1/2SM -SN BR BKN039 BKN048 OVC060
M02/M03 A2977 RMK AO2 VIS 1 1/2 RY 19 P0001 T10171033





000
SAUS43 KAPX 251455
MTRAPN
METAR KAPN 251454Z AUTO 28007KT 250V310 1 1/2SM -SN BR BKN037 BKN046
OVC055 M02/M03 A2975 RMK AO2 SLP084 P0000 60000 T10221033 51026





000
SAUS43 KAPX 251453
MTRAPN
SPECI KAPN 251452Z AUTO 28006KT 1 1/2SM -SN BR BKN037 OVC050 M02/M03
A2975 RMK AO2 P0000





000
SAUS43 KAPX 251443
MTRAPN
SPECI KAPN 251442Z AUTO 27006G15KT 2SM -SN BR BKN045 OVC055 M02/M04
A2975 RMK AO2 P0000 T10221039





000
SAUS43 KAPX 251409
MTRAPN
SPECI KAPN 251408Z AUTO 28009KT 7SM -SN OVC032 M02/M04 A2972 RMK AO2
P0000 T10221039





000
SAUS43 KAPX 251355
MTRAPN
METAR KAPN 251354Z AUTO 28009KT 4SM -SN BR OVC029 M02/M04 A2971 RMK
AO2 SLP070 P0000 T10221039





000
SAUS43 KAPX 251335
MTRAPN
SPECI KAPN 251334Z AUTO 26008G14KT 3SM -SN BR FEW013 OVC032 M02/M03
A2970 RMK AO2 P0000 T10171033





000
SAUS43 KAPX 251322 COR
MTRAPN
SPECI KAPN 251320Z AUTO 27007KT 2SM -SN BR OVC030 M02/M03 A2969 RMK
AO2 P0000 T10171028 TSNO





000
SAUS43 KAPX 251321 COR
MTRAPN
SPECI KAPN 251320Z AUTO 27007KT 2SM -SN BR OVC030 M02/M03 A2969 RMK
AO2 P0000 T10171028 TSNO





000
SAUS43 KAPX 251319 COR
MTRAPN
SPECI KAPN 251317Z AUTO 27004KT 1 3/4SM -SN BR FEW014 OVC028 M02/M03
A2969 RMK AO2 P0000 T10171028





000
SAUS43 KAPX 251317
MTRAPN
SPECI KAPN 251317Z AUTO 27004KT 1 3/4SM -SN BR FEW014 OVC028 M02/M03
A2969 RMK AO2 P0000 T10171028





000
SAUS43 KAPX 251309
MTRAPN
SPECI KAPN 251308Z AUTO 26009KT 2SM -SN BR FEW016 OVC028 M02/M03
A2968 RMK AO2 P0000 T10171028





000
SAUS43 KAPX 251255
MTRAPN
METAR KAPN 251254Z AUTO 29007KT 1 1/2SM -SN BR OVC030 M02/M03 A2967
RMK AO2 SNE02B07 SLP056 P0000 T10171028





000
SAUS43 KAPX 251253
MTRAPN
SPECI KAPN 251252Z AUTO 29007KT 1 3/4SM -SN BR FEW017 OVC030 M02/M03
A2967 RMK AO2 SNE02B07 P0000





000
SAUS43 KAPX 251203
MTRAPN
SPECI KAPN 251202Z AUTO 27007G14KT 7SM FEW025 OVC036 M02/M03 A2964
RMK AO2 SNE02 P0000 T10171028





000
SAUS43 KAPX 251156
MTRAPN
METAR KAPN 251154Z AUTO 27007KT 3SM -SN BR OVC029 M02/M03 A2963 RMK
AO2 SLP041 P0002 60007 70056 T10171028 10006 21017 53026





000
SAUS43 KAPX 251144
MTRAPN
SPECI KAPN 251143Z AUTO 28009KT 240V300 1 1/2SM -SN BR FEW009 OVC016
M02/M03 A2963 RMK AO2 P0002 T10171028





000
SAUS43 KAPX 251127
MTRAPN
SPECI KAPN 251126Z AUTO 28008KT 1 1/2SM -SN BR SCT009 OVC012 M02/M03
A2961 RMK AO2 P0002 T10171028





000
SAUS43 KAPX 251120
MTRAPN
SPECI KAPN 251119Z AUTO 27007KT 1 1/2SM -SN BR OVC009 M02/M02 A2961
RMK AO2 P0001 T10171022





000
SAUS43 KAPX 251111
MTRAPN
SPECI KAPN 251110Z AUTO 29006KT 1SM -SN BR VV010 M02/M02 A2960 RMK
AO2 P0001 T10171022





000
SAUS43 KAPX 251055
MTRAPN
METAR KAPN 251054Z AUTO 28006KT 3/4SM -SN BR VV008 M02/M02 A2959 RMK
AO2 SLP028 P0004 T10171022 TSNO





000
SAUS43 KAPX 251055
MTRAPN
METAR KAPN 251054Z AUTO 28006KT 3/4SM -SN BR VV008 M02/M02 A2959 RMK
AO2 SLP028 P0004 T10171022 TSNO





000
SAUS43 KAPX 251052
MTRAPN
SPECI KAPN 251050Z AUTO 29007KT 3/4SM -SN BR VV008 M02/M02 A2959 RMK
AO2 P0003





000
SAUS43 KAPX 251052
MTRAPN
SPECI KAPN 251050Z AUTO 29007KT 3/4SM -SN BR VV008 M02/M02 A2959 RMK
AO2 P0003





000
SAUS43 KAPX 251043
MTRAPN
SPECI KAPN 251042Z AUTO 28007KT 1/2SM SN FZFG FEW005 OVC010 M01/M02
A2959 RMK AO2 P0002 T10111022





000
SAUS43 KAPX 251036
MTRAPN
SPECI KAPN 251035Z AUTO 29009KT 1SM -SN BR SCT006 OVC014 M01/M02
A2958 RMK AO2 P0001 T10111017





000
SAUS43 KAPX 251005
MTRAPN
SPECI KAPN 251003Z AUTO 22010G16KT 2 1/2SM -SN BR SCT015 OVC028
M01/M02 A2956 RMK AO2 P0000 T10061017 TSNO





000
SAUS43 KAPX 250955
MTRAPN
METAR KAPN 250954Z AUTO 23009KT 4SM -SN BR SCT015 OVC030 M01/M02
A2956 RMK AO2 SNB06 SLP014 P0000 T10061017





000
SAUS43 KAPX 250855
MTRAPN
METAR KAPN 250854Z AUTO 23008G17KT 10SM FEW015 OVC050 00/M02 A2954
RMK AO2 SNE41 SLP007 P0000 60001 T00001022 51027





000
SAUS43 KAPX 250755
MTRAPN
METAR KAPN 250754Z AUTO 24008G15KT 3SM -SN BR FEW012 OVC037 00/M01
A2951 RMK AO2 VIS 2 RY 19 SLP999 P0000 T00001011





000
SAUS43 KAPX 250655
MTRAPN
METAR KAPN 250654Z AUTO 23009G16KT 7SM -SN BKN040 OVC110 01/M01
A2948 RMK AO2 SLP989 P0001 T00061011





000
SAUS43 KAPX 250632
MTRAPN
SPECI KAPN 250631Z AUTO 24011G17KT 3SM -SN BR FEW009 FEW014 OVC031
00/M01 A2947 RMK AO2 P0001 T00001011





000
SAUS43 KAPX 250625
MTRAPN
SPECI KAPN 250624Z AUTO 25014KT 2SM -SN BR FEW009 FEW014 OVC020
00/M01 A2947 RMK AO2 P0001 T00001011





000
SAUS43 KAPX 250555
MTRAPN
METAR KAPN 250554Z AUTO 25010KT 1 3/4SM -SN BR SCT008 OVC016 00/M01
A2945 RMK AO2 SLP978 P0004 60032 T00001006 10067 20000 51027 TSNO





000
SAUS43 KAPX 250552
MTRAPN
SPECI KAPN 250550Z AUTO 24010G16KT 1 1/2SM -SN BR BKN008 OVC014
00/00 A2945 RMK AO2 P0004





000
SAUS43 KAPX 250517
MTRAPN
SPECI KAPN 250516Z AUTO 25009KT 1 3/4SM -SN BR SCT007 OVC013 01/00
A2943 RMK AO2 P0001 T00060000





000
SAUS43 KAPX 250504
MTRAPN
SPECI KAPN 250503Z AUTO 25007KT 1 1/2SM -SN BR BKN006 OVC010 00/00
A2942 RMK AO2 P0001 T00000000





000
SAUS43 KAPX 250455
MTRAPN
METAR KAPN 250454Z AUTO 24006KT 1 3/4SM -SN BR SCT006 OVC010 01/00
A2941 RMK AO2 VIS 1 RY 19 SLP963 P0007 T00060000 401110000





000
SAUS43 KAPX 250414
MTRAPN
SPECI KAPN 250413Z AUTO 25006KT 1 1/2SM -SN BR OVC008 01/00 A2938
RMK AO2 P0002 T00060000





000
SAUS43 KAPX 250414
MTRAPN
SPECI KAPN 250413Z AUTO 25006KT 1 1/2SM -SN BR OVC008 01/00 A2938
RMK AO2 P0002 T00060000





000
SAUS43 KAPX 250407
MTRAPN
SPECI KAPN 250406Z AUTO 24007KT 2SM -SN BR OVC008 01/00 A2938 RMK
AO2 P0001 T00060000





000
SAUS43 KAPX 250355
MTRAPN
METAR KAPN 250354Z AUTO 23006KT 1 3/4SM -SN BR OVC008 01/01 A2937
RMK AO2 SLP951 P0006 T00060006





000
SAUS43 KAPX 250355
MTRAPN
METAR KAPN 250354Z AUTO 23006KT 1 3/4SM -SN BR OVC008 01/01 A2937
RMK AO2 SLP951 P0006 T00060006





000
SAUS43 KAPX 250345
MTRAPN
SPECI KAPN 250344Z AUTO 24010G16KT 2SM -SN BR OVC010 01/00 A2936 RMK
AO2 P0005 T00060000





000
SAUS43 KAPX 250255
MTRAPN
METAR KAPN 250254Z AUTO 22009G19KT 1 1/4SM -SN BR OVC010 01/00 A2932
RMK AO2 SLP934 P0004 60015 T00060000 51047





000
SAUS43 KAPX 250248
MTRAPN
SPECI KAPN 250247Z AUTO 22012G20KT 1 1/2SM -SN BR OVC012 01/00 A2932
RMK AO2 P0003 T00060000





000
SAUS43 KAPX 250200 COR
MTRAPN
METAR KAPN 250154Z AUTO 22014G21KT 2SM -SN BR OVC011 01/01 A2929 RMK
AO2 PK WND 24030/0104 RAE30SNB30 SLP924 P0003 T00110006





000
SAUS43 KAPX 250158 COR
MTRAPN
METAR KAPN 250154Z AUTO 22014G21KT 2SM -SN BR OVC011 01/01 A2929 RMK
AO2 PK WND 24030/0104 RAE30SNB30 SLP924 P0003 T00110006





000
SAUS43 KAPX 250157 COR
MTRAPN
METAR KAPN 250154Z AUTO 22014G21KT 2SM -SN BR OVC011 01/01 A2929 RMK
AO2 PK WND 24030/0104 RAE30SNB30 SLP924 P0003 T00110006





000
SAUS43 KAPX 250156 COR
MTRAPN
METAR KAPN 250154Z AUTO 22014G21KT 2SM -SN BR OVC011 01/01 A2929 RMK
AO2 PK WND 24030/0104 RAE30SNB30 SLP924 P0003 T00110006





000
SAUS43 KAPX 250145
MTRAPN
SPECI KAPN 250144Z AUTO 23013G23KT 2 1/2SM -SN BR FEW008 OVC013
01/01 A2929 RMK AO2 PK WND 24030/0104 RAE30SNB30 P0002 T00110006





000
SAUS43 KAPX 250107
MTRAPN
SPECI KAPN 250106Z AUTO 22020G30KT 10SM -RA SCT016 BKN022 OVC041
03/01 A2926 RMK AO2 PK WND 24030/0104 P0000 T00280011





000
SAUS43 KAPX 250055
MTRAPN
METAR KAPN 250054Z AUTO 22020G33KT 10SM -RA BKN014 BKN019 OVC024
03/02 A2925 RMK AO2 PK WND 21033/0048 PRESRR SLP909 P0008 T00330017





000
SAUS43 KAPX 250042
MTRAPN
SPECI KAPN 250041Z AUTO 22016G27KT 8SM -RA BKN014 OVC022 04/03 A2923
RMK AO2 PK WND 21027/0039 PRESRR P0006 T00440028





000
SAUS43 KAPX 250009
MTRAPN
SPECI KAPN 250008Z AUTO 25008KT 6SM -RA BR FEW008 BKN027 OVC034
07/04 A2919 RMK AO2 P0002 T00670044





000
SAUS43 KAPX 242355
MTRAPN
METAR KAPN 242354Z AUTO 25006KT 6SM -RA BR SCT008 BKN014 OVC036
07/04 A2918 RMK AO2 SLP885 P0005 60016 T00670044 10106 20067 53043





000
SAUS43 KAPX 242343
MTRAPN
SPECI KAPN 242342Z AUTO 25006KT 7SM -RA FEW008 BKN012 OVC030 07/04
A2917 RMK AO2 P0003 T00670044





000
SAUS43 KAPX 242329
MTRAPN
SPECI KAPN 242328Z AUTO 27006KT 10SM -RA BKN011 BKN026 OVC044 07/05
A2916 RMK AO2 P0003 T00670050





000
SAUS43 KAPX 242255
MTRAPN
METAR KAPN 242254Z AUTO 29004KT 8SM -RA OVC043 07/05 A2913 RMK AO2
SLP867 P0006 T00720050





000
SAUS43 KAPX 242233
MTRAPN
SPECI KAPN 242232Z AUTO 29006KT 8SM -RA FEW009 BKN038 OVC045 07/06
A2912 RMK AO2 P0004 T00720056





000
SAUS43 KAPX 242203
MTRAPN
SPECI KAPN 242202Z AUTO 00000KT 6SM -RA BR SCT008 OVC017 08/06 A2910
RMK AO2 P0000 T00830061





000
SAUS43 KAPX 242155
MTRAPN
METAR KAPN 242154Z AUTO 29003KT 6SM -RA BR BKN010 OVC017 08/06 A2910
RMK AO2 CIG 007V012 SLP856 P0005 T00830061





000
SAUS43 KAPX 242124
MTRAPN
SPECI KAPN 242123Z AUTO 27003KT 7SM -RA OVC015 09/06 A2908 RMK AO2
P0001 T00890061





000
SAUS43 KAPX 242124
MTRAPN
SPECI KAPN 242123Z AUTO 27003KT 7SM -RA OVC015 09/06 A2908 RMK AO2
P0001 T00890061





000
SAUS43 KAPX 242109
MTRAPN
SPECI KAPN 242108Z AUTO VRB04KT 10SM -RA OVC014 09/07 A2906 RMK AO2
P0000 T00890067





000
SAUS43 KAPX 242101
MTRAPN
METAR KAPN 242054Z AUTO 25004KT 10SM -RA OVC015 09/06 A2905 RMK AO2
SLP840 P0000 60000 T00940061 53021





000
SAUS43 KAPX 241957 COR
MTRAPN
METAR KAPN 241954Z AUTO 25005KT 10SM -RA OVC016 10/07 A2902 RMK AO2
RAB06E24B46 SLP828 P0000 T01000067





000
SAUS43 KAPX 241956 COR
MTRAPN
METAR KAPN 241954Z AUTO 25005KT 10SM -RA OVC016 10/07 A2902 RMK AO2
RAB06E24B46 SLP828 P0000 T01000067





000
SAUS43 KAPX 241855
MTRAPN
METAR KAPN 241854Z AUTO 27006KT 10SM BKN019 OVC070 10/06 A2899 RMK
AO2 SLP820 T01000061





000
SAUS43 KAPX 241755
MTRAPN
METAR KAPN 241754Z AUTO 25009KT 10SM OVC022 11/07 A2899 RMK AO2
SLP819 60001 T01060067 10111 20078 51005





000
SAUS43 KAPX 241702
MTRAPN
SPECI KAPN 241701Z AUTO 24006KT 10SM OVC015 10/08 A2899 RMK AO2
T01000078





000
SAUS43 KAPX 241655
MTRAPN
METAR KAPN 241654Z AUTO 23008KT 10SM OVC013 11/08 A2898 RMK AO2
SLP817 T01060078





000
SAUS43 KAPX 241555
MTRAPN
METAR KAPN 241554Z AUTO 22011G16KT 10SM OVC012 09/08 A2898 RMK AO2
SLP816 T00940078





000
SAUS43 KAPX 241458
MTRAPN
METAR KAPN 241454Z AUTO 21008KT 10SM OVC014 09/08 A2897 RMK AO2
SLP814 60001 T00940078 53019





000
SAUS43 KAPX 241355
MTRAPN
METAR KAPN 241354Z AUTO 22008KT 10SM OVC014 09/07 A2895 RMK AO2
RAB24E37 SLP806 P0001 T00890072





000
SAUS43 KAPX 241316
MTRAPN
SPECI KAPN 241314Z AUTO 23008KT 10SM BKN014 BKN065 OVC095 09/07
A2894 RMK AO2 T00890072





000
SAUS43 KAPX 241255
MTRAPN
METAR KAPN 241254Z AUTO 23007KT 10SM FEW012 OVC095 08/07 A2893 RMK
AO2 RAB05E51 SLP799 P0000 T00830072





000
SAUS43 KAPX 241155
MTRAPN
METAR KAPN 241154Z AUTO 21006KT 10SM FEW008 BKN070 OVC100 08/07
A2891 RMK AO2 RAE54 SLP795 P0003 60042 70082 T00780067 10078 20061
56026





000
SAUS43 KAPX 241116
MTRAPN
SPECI KAPN 241114Z AUTO 20006KT 10SM -RA SCT005 SCT021 OVC070 08/07
A2891 RMK AO2 P0001 T00780067





000
SAUS43 KAPX 241055
MTRAPN
METAR KAPN 241054Z AUTO 19007KT 10SM -RA OVC006 08/07 A2892 RMK AO2
VIS 2 1/2 RY 19 SLP795 P0002 T00780067





000
SAUS43 KAPX 240956
MTRAPN
METAR KAPN 240954Z AUTO 14004KT 5SM -RA BR OVC005 07/07 A2894 RMK
AO2 CIG 003V009 SLP803 P0003 T00670067





000
SAUS43 KAPX 240956
MTRAPN
METAR KAPN 240954Z AUTO 14004KT 5SM -RA BR OVC005 07/07 A2894 RMK
AO2 CIG 003V009 SLP803 P0003 T00670067





000
SAUS43 KAPX 240928
MTRAPN
SPECI KAPN 240927Z AUTO 14006KT 6SM -RA BR OVC005 07/06 A2896 RMK
AO2 CIG 003V009 P0003 T00670056





000
SAUS43 KAPX 240855
MTRAPN
METAR KAPN 240854Z AUTO 13010KT 5SM -RA BR OVC002 07/06 A2899 RMK
AO2 PRESFR SLP821 P0007 60034 T00670056 56077





000
SAUS43 KAPX 240755
MTRAPN
METAR KAPN 240754Z AUTO 12008KT 5SM -RA BR OVC003 07/06 A2906 RMK
AO2 PRESFR SLP845 P0011 T00670056





000
SAUS43 KAPX 240655
MTRAPN
METAR KAPN 240654Z AUTO 11010KT 3SM RA BR OVC003 06/05 A2914 RMK AO2
PRESFR SLP870 P0016 T00610050





000
SAUS43 KAPX 240645
MTRAPN
SPECI KAPN 240644Z AUTO 12009KT 3SM RA BR OVC003 06/05 A2916 RMK AO2
PRESFR P0013 T00610050





000
SAUS43 KAPX 240555
MTRAPN
METAR KAPN 240554Z AUTO 11006KT 2 1/2SM RA BR OVC002 06/05 A2923 RMK
AO2 PRESFR SLP899 P0010 60038 T00610050 10072 20056 58086





000
SAUS43 KAPX 240548 COR
MTRAPN
SPECI KAPN 240543Z AUTO 11008KT 3SM RA BR OVC002 06/05 A2925 RMK AO2
PRESFR P0007 T00610050





000
SAUS43 KAPX 240544
MTRAPN
SPECI KAPN 240543Z AUTO 11008KT 3SM RA BR OVC002 06/05 A2925 RMK AO2
PRESFR P0007 T00610050





000
SAUS43 KAPX 240529
MTRAPN
SPECI KAPN 240528Z AUTO 11008KT 2 1/2SM RA BR OVC002 06/05 A2928 RMK
AO2 PRESFR P0005 T00610050





000
SAUS43 KAPX 240516
MTRAPN
SPECI KAPN 240515Z AUTO 12011KT 3SM -RA BR OVC002 06/05 A2930 RMK
AO2 P0002 T00610050





000
SAUS43 KAPX 240506
MTRAPN
SPECI KAPN 240504Z AUTO 13009KT 2 1/2SM -RA BR OVC002 06/04 A2931
RMK AO2 P0001 T00610044 TSNO





000
SAUS43 KAPX 240455
MTRAPN
METAR KAPN 240454Z AUTO 12007KT 3SM -RA BR OVC002 06/04 A2932 RMK
AO2 SLP932 P0006 T00560044 401000017





000
SAUS43 KAPX 240427
MTRAPN
SPECI KAPN 240425Z AUTO 12010KT 3SM -RA BR OVC002 06/05 A2936 RMK
AO2 PRESFR P0003 T00610050





000
SAUS43 KAPX 240355
MTRAPN
METAR KAPN 240354Z AUTO 10007KT 2 1/2SM -RA BR OVC003 06/05 A2940
RMK AO2 PRESFR SLP960 P0006 T00610050





000
SAUS43 KAPX 240355
MTRAPN
METAR KAPN 240354Z AUTO 10007KT 2 1/2SM -RA BR OVC003 06/05 A2940
RMK AO2 PRESFR SLP960 P0006 T00610050





000
SAUS43 KAPX 240346
MTRAPN
SPECI KAPN 240345Z AUTO 09005KT 2 1/2SM -RA BR OVC003 06/05 A2942
RMK AO2 PRESFR P0006 T00610050





000
SAUS43 KAPX 240346
MTRAPN
SPECI KAPN 240345Z AUTO 09005KT 2 1/2SM -RA BR OVC003 06/05 A2942
RMK AO2 PRESFR P0006 T00610050





000
SAUS43 KAPX 240335
MTRAPN
SPECI KAPN 240334Z AUTO 11004KT 3SM -RA BR BKN003 OVC027 07/06 A2943
RMK AO2 PRESFR P0004 T00670056





000
SAUS43 KAPX 240258 COR
MTRAPN
METAR KAPN 240254Z AUTO 11006KT 3SM -RA BR OVC006 07/06 A2948 RMK
AO2 SLP989 P0009 60016 T00720061 56023





000
SAUS43 KAPX 240256
MTRAPN
METAR KAPN 240254Z AUTO 11006KT 3SM -RA BR OVC006 07/06 A2948 RMK
AO2 SLP989 P0009 60016 T00720061 56023





000
SAUS43 KAPX 240256 COR
MTRAPN
METAR KAPN 240254Z AUTO 11006KT 3SM -RA BR OVC006 07/06 A2948 RMK
AO2 SLP989 P0009 60016 T00720061 56023





000
SAUS43 KAPX 240254
MTRAPN
SPECI KAPN 240252Z AUTO 11007KT 3SM -RA BR OVC006 07/06 A2949 RMK
AO2 VIS 2 RY 19 P0008





000
SAUS43 KAPX 240220
MTRAPN
SPECI KAPN 240218Z AUTO 13007KT 2 1/2SM RA BR OVC006 07/06 A2951 RMK
AO2 VIS 1 3/4 RY 19 P0002 T00720056





000
SAUS43 KAPX 240156
MTRAPN
METAR KAPN 240154Z AUTO 14007KT 3SM -RA BR OVC005 07/06 A2953 RMK
AO2 VIS 1 1/4 RY 19 CIG 002V007 SLP003 P0004 T00720061





000
SAUS43 KAPX 240156
MTRAPN
METAR KAPN 240154Z AUTO 14007KT 3SM -RA BR OVC005 07/06 A2953 RMK
AO2 VIS 1 1/4 RY 19 CIG 002V007 SLP003 P0004 T00720061





000
SAUS43 KAPX 240153
MTRAPN
SPECI KAPN 240151Z AUTO 14008KT 3SM -RA BR OVC005 07/06 A2953 RMK
AO2 VIS 1 1/4 RY 19 CIG 002V007 P0004





000
SAUS43 KAPX 240141 COR
MTRAPN
SPECI KAPN 240138Z AUTO 14009KT 2SM -RA BR OVC004 07/06 A2954 RMK
AO2 VIS 1 1/4 RY 19 CIG 002V006 P0003 T00670056





000
SAUS43 KAPX 240140 COR
MTRAPN
SPECI KAPN 240138Z AUTO 14009KT 2SM -RA BR OVC004 07/06 A2954 RMK
AO2 VIS 1 1/4 RY 19 CIG 002V006 P0003 T00670056





000
SAUS43 KAPX 240116
MTRAPN
SPECI KAPN 240114Z AUTO 13007KT 2 1/2SM -RA BR BKN005 OVC055 07/06
A2955 RMK AO2 VIS 1 3/4 RY 19 P0002 T00720061





000
SAUS43 KAPX 240055
MTRAPN
METAR KAPN 240054Z AUTO 13005KT 2SM -RA BR SCT006 BKN055 OVC070
07/06 A2955 RMK AO2 SLP013 P0003 T00670056





000
SAUS43 KAPX 240053
MTRAPN
SPECI KAPN 240052Z AUTO 12004KT 2SM -RA BR SCT006 BKN055 OVC070
07/06 A2956 RMK AO2 P0003





000
SAUS43 KAPX 240016
MTRAPN
SPECI KAPN 240015Z AUTO 11005KT 2 1/2SM -RA BR BKN009 BKN025 OVC070
06/05 A2957 RMK AO2 P0000 T00610050





000
SAUS43 KAPX 240007
MTRAPN
SPECI KAPN 240006Z AUTO 10004KT 3SM -RA BR BKN010 BKN027 OVC075
06/05 A2958 RMK AO2 P0000 T00610050





000
SAUS43 KAPX 232357 COR
MTRAPN
METAR KAPN 232354Z AUTO 09005KT 3SM -RA BR FEW010 SCT025 OVC075
07/05 A2958 RMK AO2 RAB24 SLP024 P0001 60002 T00670050 10100 20067
57019





000
SAUS43 KAPX 232356 COR
MTRAPN
METAR KAPN 232354Z AUTO 09005KT 3SM -RA BR FEW010 SCT025 OVC075
07/05 A2958 RMK AO2 RAB24 SLP024 P0001 60002 T00670050 10100 20067
57019





000
SAUS43 KAPX 232351
MTRAPN
SPECI KAPN 232350Z AUTO 10005KT 3SM -RA BR SCT010 SCT027 OVC075
07/05 A2959 RMK AO2 RAB24 P0001





000
SAUS43 KAPX 232317
MTRAPN
SPECI KAPN 232316Z AUTO 15008KT 6SM BR OVC010 08/07 A2960 RMK AO2
VIS 2 1/2 RY 19 CIG 005V012 T00830067





000
SAUS43 KAPX 232255
MTRAPN
METAR KAPN 232254Z AUTO 15007KT 5SM BR OVC006 08/07 A2961 RMK AO2
RAE10B14E24 CIG 004V010 SLP030 P0001 T00780067





000
SAUS43 KAPX 232214
MTRAPN
SPECI KAPN 232213Z AUTO 14008KT 5SM BR BKN009 OVC070 08/06 A2962 RMK
AO2 RAE10 P0001 T00780061





000
SAUS43 KAPX 232155
MTRAPN
METAR KAPN 232154Z AUTO 12006KT 6SM -RA BR FEW055 OVC075 08/07 A2962
RMK AO2 SLP034 P0000 T00830067





000
SAUS43 KAPX 232155
MTRAPN
METAR KAPN 232154Z AUTO 12006KT 6SM -RA BR FEW055 OVC075 08/07 A2962
RMK AO2 SLP034 P0000 T00830067





000
SAUS43 KAPX 232121
MTRAPN
SPECI KAPN 232120Z AUTO 14007KT 7SM -RA SCT015 BKN080 OVC090 09/07
A2963 RMK AO2 P0000 T00890067





000
SAUS43 KAPX 232121
MTRAPN
SPECI KAPN 232120Z AUTO 14007KT 7SM -RA SCT015 BKN080 OVC090 09/07
A2963 RMK AO2 P0000 T00890067





000
SAUS43 KAPX 232055
MTRAPN
METAR KAPN 232054Z AUTO 16007KT 10SM -RA OVC015 09/07 A2964 RMK AO2
RAB50 SLP042 P0000 60000 T00940067 58022





000
SAUS43 KAPX 231955
MTRAPN
METAR KAPN 231954Z AUTO 17008KT 10SM OVC016 10/06 A2967 RMK AO2
SLP051 T01000061





000
SAUS43 KAPX 231855
MTRAPN
METAR KAPN 231854Z AUTO 16008KT 10SM OVC015 10/06 A2968 RMK AO2
SLP056 T01000061





000
SAUS43 KAPX 231755
MTRAPN
METAR KAPN 231754Z AUTO 20010KT 9SM BKN016 BKN050 10/06 A2971 RMK
AO2 SLP064 T01000061 10100 20033 56028





000
SAUS43 KAPX 231753
MTRAPN
SPECI KAPN 231752Z AUTO 19009KT 9SM BKN016 BKN050 10/06 A2971 RMK
AO2





000
SAUS43 KAPX 231655
MTRAPN
METAR KAPN 231654Z AUTO 19009KT 7SM OVC010 09/07 A2975 RMK AO2
SLP078 T00890067





000
SAUS43 KAPX 231642
MTRAPN
SPECI KAPN 231641Z AUTO 19008KT 6SM BR OVC010 09/07 A2975 RMK AO2
CIG 008V013 PRESFR T00890072





000
SAUS43 KAPX 231555
MTRAPN
METAR KAPN 231554Z AUTO 19012KT 4SM BR OVC006 08/07 A2979 RMK AO2
SLP093 T00780072





000
SAUS43 KAPX 231555
MTRAPN
METAR KAPN 231554Z AUTO 19012KT 4SM BR OVC006 08/07 A2979 RMK AO2
SLP093 T00780072





000
SAUS43 KAPX 231504
MTRAPN
SPECI KAPN 231503Z AUTO 18010KT 3SM BR BKN005 OVC010 07/07 A2978 RMK
AO2 T00720067





000
SAUS43 KAPX 231455
MTRAPN
METAR KAPN 231454Z AUTO 18010KT 2 1/2SM BR OVC005 07/07 A2977 RMK
AO2 SLP087 T00720067 58012





000
SAUS43 KAPX 231433
MTRAPN
SPECI KAPN 231432Z AUTO 18009KT 2SM BR OVC005 07/07 A2979 RMK AO2
VIS 1 RY 19 CIG 003V007 T00670067





000
SAUS43 KAPX 231423
MTRAPN
SPECI KAPN 231422Z AUTO 17007KT 1 1/4SM BR OVC003 06/06 A2979 RMK
AO2 VIS 1/2 RY 19 T00560056





000
SAUS43 KAPX 231413
MTRAPN
SPECI KAPN 231412Z AUTO 16007KT 3/4SM BR OVC003 05/05 A2979 RMK AO2
T00500050





000
SAUS43 KAPX 231355
MTRAPN
METAR KAPN 231354Z AUTO 15003KT 1/4SM FG VV003 04/04 A2979 RMK AO2
SLP095 T00390039





000
SAUS43 KAPX 231310
MTRAPN
SPECI KAPN 231309Z AUTO 10003KT 1/4SM FG VV002 04/04 A2981 RMK AO2
T00390039





000
SAUS43 KAPX 231255
MTRAPN
METAR KAPN 231254Z AUTO 00000KT 1/2SM FG VV002 04/04 A2981 RMK AO2
SLP101 T00390039





000
SAUS43 KAPX 231213
MTRAPN
SPECI KAPN 231211Z AUTO 14003KT 1/2SM FG VV002 03/03 A2981 RMK AO2
T00330033





000
SAUS43 KAPX 231204
MTRAPN
SPECI KAPN 231203Z AUTO 12004KT 1/4SM FG VV002 03/03 A2980 RMK AO2
T00330033





000
SAUS43 KAPX 231155
MTRAPN
METAR KAPN 231154Z AUTO 12003KT 1/2SM FG VV002 03/03 A2981 RMK AO2
SLP100 T00330033 10039 20017 56007





000
SAUS43 KAPX 231128
MTRAPN
SPECI KAPN 231127Z AUTO 14005KT 3/4SM BR OVC002 03/03 A2981 RMK AO2
T00330033





000
SAUS43 KAPX 231114
MTRAPN
SPECI KAPN 231113Z AUTO 13006KT 1 1/4SM BR OVC003 03/03 A2981 RMK
AO2 T00330033





000
SAUS43 KAPX 231055
MTRAPN
METAR KAPN 231054Z AUTO 14006KT 2 1/2SM BR OVC003 03/03 A2981 RMK
AO2 SLP100 T00330033





000
SAUS43 KAPX 231032
MTRAPN
SPECI KAPN 231031Z AUTO 15006KT 2 1/2SM BR OVC003 03/03 A2982 RMK
AO2 T00330033





000
SAUS43 KAPX 231032
MTRAPN
SPECI KAPN 231031Z AUTO 15006KT 2 1/2SM BR OVC003 03/03 A2982 RMK
AO2 T00330033





000
SAUS43 KAPX 231013
MTRAPN
SPECI KAPN 231012Z AUTO 13005KT 3SM BR OVC006 03/03 A2981 RMK AO2
CIG 004V008 T00330033





000
SAUS43 KAPX 230955
MTRAPN
METAR KAPN 230954Z AUTO 14006KT 2 1/2SM BR OVC007 03/03 A2981 RMK
AO2 CIG 006V010 SLP101 T00330033





000
SAUS43 KAPX 230955
MTRAPN
METAR KAPN 230954Z AUTO 14006KT 2 1/2SM BR OVC007 03/03 A2981 RMK
AO2 CIG 006V010 SLP101 T00330033





000
SAUS43 KAPX 230942
MTRAPN
SPECI KAPN 230941Z AUTO 14005KT 2 1/2SM BR OVC009 03/03 A2982 RMK
AO2 VIS 1 3/4 RY 19 CIG 007V011 T00330033





000
SAUS43 KAPX 230942
MTRAPN
SPECI KAPN 230941Z AUTO 14005KT 2 1/2SM BR OVC009 03/03 A2982 RMK
AO2 VIS 1 3/4 RY 19 CIG 007V011 T00330033





000
SAUS43 KAPX 230935
MTRAPN
SPECI KAPN 230934Z AUTO 14006KT 2SM BR OVC010 03/03 A2983 RMK AO2
VIS 1 RY 19 CIG 007V011 T00280028





000
SAUS43 KAPX 230916
MTRAPN
SPECI KAPN 230915Z AUTO 17005KT 1 1/2SM BR OVC010 03/03 A2984 RMK
AO2 VIS 1/2 RY 19 CIG 009V015 T00280028





000
SAUS43 KAPX 230907
MTRAPN
SPECI KAPN 230906Z AUTO 17006KT 3/4SM BR OVC012 02/02 A2984 RMK AO2
T00220022





000
SAUS43 KAPX 230855
MTRAPN
METAR KAPN 230854Z AUTO 16004KT 1SM BR OVC014 02/02 A2983 RMK AO2
SLP108 T00220022 58007





000
SAUS43 KAPX 230851
MTRAPN
SPECI KAPN 230849Z AUTO 13003KT 1 1/4SM BR OVC016 02/02 A2983 RMK
AO2 VIS 1/4 RY 19





000
SAUS43 KAPX 230818
MTRAPN
SPECI KAPN 230817Z AUTO 00000KT 1/2SM FG OVC017 02/02 A2984 RMK AO2
T00170017





000
SAUS43 KAPX 230803
MTRAPN
SPECI KAPN 230802Z AUTO 15004KT 1 1/4SM BR BKN019 02/02 A2984 RMK
AO2 VIS 1/2 RY 19 T00220022





000
SAUS43 KAPX 230755
MTRAPN
METAR KAPN 230754Z AUTO 17005KT 3/4SM BR OVC020 02/02 A2985 RMK AO2
SLP116 T00170017





000
SAUS43 KAPX 230753
MTRAPN
SPECI KAPN 230752Z AUTO 16005KT 3/4SM BR OVC020 02/02 A2985 RMK AO2





000
SAUS43 KAPX 230744
MTRAPN
SPECI KAPN 230742Z AUTO 16004KT 1/4SM FG BKN020 02/02 A2985 RMK AO2
T00170017





000
SAUS43 KAPX 230733
MTRAPN
SPECI KAPN 230731Z AUTO 19003KT 1 3/4SM BR BKN022 03/03 A2985 RMK
AO2 VIS 3/4 RY 19 T00280028





000
SAUS43 KAPX 230714
MTRAPN
SPECI KAPN 230713Z AUTO 21003KT 2 1/2SM BR SCT020 03/03 A2985 RMK
AO2 T00330033





000
SAUS43 KAPX 230655
MTRAPN
METAR KAPN 230654Z AUTO 21005KT 3SM BR OVC020 04/04 A2984 RMK AO2
SLP111 T00390039





000
SAUS43 KAPX 230641
MTRAPN
SPECI KAPN 230640Z AUTO 19006KT 3SM BR SCT003 OVC022 04/03 A2984 RMK
AO2 VIS 2 RY 19 T00390033





000
SAUS43 KAPX 230555
MTRAPN
METAR KAPN 230554Z AUTO 18004KT 3SM BR OVC004 03/03 A2984 RMK AO2
SLP111 T00330033 10044 20028 51009





000
SAUS43 KAPX 230548
MTRAPN
SPECI KAPN 230547Z AUTO 19003KT 3SM BR OVC004 03/03 A2984 RMK AO2
T00330033





000
SAUS43 KAPX 230455
MTRAPN
METAR KAPN 230454Z AUTO 18004KT 5SM BR OVC007 03/03 A2984 RMK AO2
SLP111 T00330033 400441039





000
SAUS43 KAPX 230355
MTRAPN
METAR KAPN 230354Z AUTO 19003KT 5SM BR OVC008 03/03 A2982 RMK AO2
VIS 2 1/2 RY 19 SLP106 T00280028





000
SAUS43 KAPX 230355
MTRAPN
METAR KAPN 230354Z AUTO 19003KT 5SM BR OVC008 03/03 A2982 RMK AO2
VIS 2 1/2 RY 19 SLP106 T00280028





000
SAUS43 KAPX 230335
MTRAPN
SPECI KAPN 230334Z AUTO 00000KT 5SM BR OVC008 03/03 A2982 RMK AO2
VIS 2 1/2 RY 19 CIG 006V011 T00330033





000
SAUS43 KAPX 230335
MTRAPN
SPECI KAPN 230334Z AUTO 00000KT 5SM BR OVC008 03/03 A2982 RMK AO2
VIS 2 1/2 RY 19 CIG 006V011 T00330033





000
SAUS43 KAPX 230327
MTRAPN
SPECI KAPN 230326Z AUTO 20004KT 4SM BR OVC010 03/03 A2981 RMK AO2
VIS 2 1/2 RY 19 CIG 006V011 T00330033





000
SAUS43 KAPX 230309
MTRAPN
SPECI KAPN 230308Z AUTO 20004KT 4SM BR OVC006 03/03 A2981 RMK AO2
VIS 2 1/2 RY 19 CIG 004V008 T00330033





000
SAUS43 KAPX 230255
MTRAPN
METAR KAPN 230254Z AUTO 20005KT 3SM BR OVC004 03/03 A2981 RMK AO2
VIS 2 RY 19 SLP102 T00330033 51003 TSNO





000
SAUS43 KAPX 230251
MTRAPN
SPECI KAPN 230250Z AUTO 20005KT 3SM BR OVC004 03/03 A2981 RMK AO2
VIS 2 RY 19





000
SAUS43 KAPX 230155
MTRAPN
METAR KAPN 230154Z AUTO 20007KT 2SM BR OVC003 03/03 A2982 RMK AO2
SLP103 T00330033





000
SAUS43 KAPX 230130
MTRAPN
SPECI KAPN 230128Z AUTO 20007KT 2 1/2SM BR OVC004 03/03 A2981 RMK
AO2 CIG 003V007 T00330028





000
SAUS43 KAPX 230055
MTRAPN
METAR KAPN 230054Z AUTO 20008KT 7SM OVC008 03/03 A2980 RMK AO2
SLP100 T00330028





    US Dept of Commerce
    National Oceanic and Atmospheric Administration
    National Weather Service
    1325 East West Highway
    Silver Spring, MD 20910
    Page Author: NWS Internet Services Team
Disclaimer
Information Quality
Credits
Glossary
Privacy Policy
Freedom of Information Act (FOIA)
About Us
Career Opportunities